Time;durP1;ratioP1;P1;durP2;ratioP2;P2;SDS_P1;SDS_P2;PMS_P1;PMS_P2;Temp;Humidity;BMP_temperature;BMP_pressure;BME280_temperature;BME280_humidity;BME280_pressure;Samples;Min_cycle;Max_cycle;Signal;HPM_P1;HPM_P2
2021/12/19 00:00:51;;;;;;;;;;;0.40;87.00;;;;;;5087547;27;88399;-43
2021/12/19 00:08:51;;;;;;;;;;;0.40;87.00;;;;;;5084719;27;87282;-43
2021/12/19 00:11:21;;;;;;;;;;;0.40;86.80;;;;;;5085112;27;87045;-44
2021/12/19 00:13:46;;;;;;;;;;;0.40;87.00;;;;;;5084706;27;88848;-44
2021/12/19 00:16:12;;;;;;;;;;;0.40;87.00;;;;;;5084597;27;89661;-43
2021/12/19 00:18:38;;;;;;;;;;;0.40;87.00;;;;;;5084777;27;87291;-43
2021/12/19 00:21:04;;;;;;;;;;;0.40;86.90;;;;;;5087310;27;88751;-43
2021/12/19 00:23:30;;;;;;;;;;;0.40;87.00;;;;;;5085291;27;86390;-43
2021/12/19 00:25:56;;;;;;;;;;;0.40;87.00;;;;;;5084534;27;88000;-44
2021/12/19 00:28:22;;;;;;;;;;;0.40;86.90;;;;;;5084109;27;89914;-44
2021/12/19 00:30:47;;;;;;;;;;;0.40;87.00;;;;;;5083871;27;87964;-44
2021/12/19 00:33:13;;;;;;;;;;;0.40;86.90;;;;;;5084421;27;90116;-43
2021/12/19 00:35:39;;;;;;;;;;;0.40;86.90;;;;;;5084034;27;88247;-45
2021/12/19 00:38:04;;;;;;;;;;;0.40;86.90;;;;;;5084293;27;87108;-43
2021/12/19 00:40:32;;;;;;;;;;;0.40;86.90;;;;;;5084628;27;87427;-45
2021/12/19 00:43:07;;;;;;;;;;;0.40;87.00;;;;;;5086872;27;89720;-44
2021/12/19 00:45:35;;;;;;;;;;;0.40;87.00;;;;;;5084549;27;89030;-44
2021/12/19 00:48:02;;;;;;;;;;;0.40;86.90;;;;;;5066198;27;91150;-45
2021/12/19 00:50:28;;;;;;;;;;;0.40;87.00;;;;;;5084223;27;87116;-43
2021/12/19 00:52:54;;;;;;;;;;;0.30;87.00;;;;;;5084185;27;88895;-43
2021/12/19 00:55:20;;;;;;;;;;;0.40;87.10;;;;;;5083168;27;90412;-44
2021/12/19 00:57:46;;;;;;;;;;;0.30;87.10;;;;;;5084306;27;87091;-43
2021/12/19 01:00:13;;;;;;;;;;;0.30;87.20;;;;;;5083876;27;88464;-44
2021/12/19 01:02:39;;;;;;;;;;;0.30;87.20;;;;;;5083786;27;89645;-43
2021/12/19 01:05:05;;;;;;;;;;;0.30;87.20;;;;;;5087086;27;87018;-43
2021/12/19 01:07:30;;;;;;;;;;;0.30;87.20;;;;;;5083882;27;89309;-45
2021/12/19 01:09:56;;;;;;;;;;;0.30;87.10;;;;;;5083859;27;87114;-43
2021/12/19 01:12:23;;;;;;;;;;;0.30;87.20;;;;;;5084487;27;87771;-43
2021/12/19 01:14:49;;;;;;;;;;;0.30;87.20;;;;;;5083553;27;89556;-44
2021/12/19 01:17:15;;;;;;;;;;;0.30;87.00;;;;;;5083935;27;87140;-44
2021/12/19 01:19:41;;;;;;;;;;;0.30;87.00;;;;;;5083407;27;87983;-44
2021/12/19 01:22:06;;;;;;;;;;;0.30;87.10;;;;;;5083497;27;89256;-42
2021/12/19 01:24:32;;;;;;;;;;;0.30;87.20;;;;;;5083862;27;87016;-45
2021/12/19 01:26:58;;;;;;;;;;;0.30;87.00;;;;;;5086563;27;88894;-43
2021/12/19 01:29:23;;;;;;;;;;;0.30;86.90;;;;;;5083990;27;87114;-45
2021/12/19 01:31:49;;;;;;;;;;;0.30;86.80;;;;;;5083840;27;88960;-44
2021/12/19 01:34:14;;;;;;;;;;;0.30;86.90;;;;;;5083360;27;88077;-44
2021/12/19 01:36:40;;;;;;;;;;;0.30;87.00;;;;;;5084170;27;86311;-45
2021/12/19 01:39:06;;;;;;;;;;;0.30;86.90;;;;;;5083775;27;87209;-44
2021/12/19 01:41:32;;;;;;;;;;;0.30;86.90;;;;;;5083338;27;89417;-44
2021/12/19 01:43:57;;;;;;;;;;;0.30;87.00;;;;;;5082995;27;88074;-43
2021/12/19 01:46:23;;;;;;;;;;;0.30;87.00;;;;;;5083626;27;89487;-44
2021/12/19 01:48:48;;;;;;;;;;;0.30;87.10;;;;;;5085945;27;88581;-43
2021/12/19 01:51:14;;;;;;;;;;;0.30;87.20;;;;;;5083601;27;89032;-43
2021/12/19 01:53:39;;;;;;;;;;;0.30;87.20;;;;;;5083206;27;89706;-44
2021/12/19 01:56:07;;;;;;;;;;;0.30;87.10;;;;;;5083442;27;87108;-43
2021/12/19 01:58:32;;;;;;;;;;;0.20;87.20;;;;;;5082683;27;88641;-45
2021/12/19 02:00:58;;;;;;;;;;;0.20;87.20;;;;;;5085140;27;88608;-43
2021/12/19 02:03:24;;;;;;;;;;;0.20;87.20;;;;;;5086751;27;87150;-45
2021/12/19 02:05:49;;;;;;;;;;;0.20;87.30;;;;;;5086755;27;89127;-43
2021/12/19 02:08:16;;;;;;;;;;;0.20;87.20;;;;;;5085640;27;90894;-45
2021/12/19 02:10:42;;;;;;;;;;;0.20;87.10;;;;;;5089742;27;86898;-42
2021/12/19 02:13:09;;;;;;;;;;;0.20;87.20;;;;;;5086540;27;89449;-45
2021/12/19 02:15:35;;;;;;;;;;;0.30;87.40;;;;;;5086690;27;86900;-43
2021/12/19 02:18:03;;;;;;;;;;;0.30;87.10;;;;;;5086743;27;87194;-43
2021/12/19 02:20:36;;;;;;;;;;;0.20;87.20;;;;;;5086222;27;89687;-44
2021/12/19 02:23:02;;;;;;;;;;;0.20;87.20;;;;;;5086700;27;87130;-42
2021/12/19 02:25:28;;;;;;;;;;;0.20;87.20;;;;;;5086892;27;87842;-45
2021/12/19 02:27:53;;;;;;;;;;;0.20;87.10;;;;;;5086017;27;88299;-43
2021/12/19 02:30:19;;;;;;;;;;;0.20;87.30;;;;;;5089318;27;87160;-44
2021/12/19 02:32:45;;;;;;;;;;;0.20;87.20;;;;;;5085466;27;89006;-44
2021/12/19 02:35:15;;;;;;;;;;;0.20;87.20;;;;;;5086467;27;87155;-43
2021/12/19 02:48:14;;;;;;;;;;;0.20;87.40;;;;;;5086074;27;87310;-44
2021/12/19 02:50:45;;;;;;;;;;;0.20;87.40;;;;;;5086836;27;86376;-44
2021/12/19 02:53:11;;;;;;;;;;;0.20;87.40;;;;;;5088744;27;88569;-43
2021/12/19 02:55:37;;;;;;;;;;;0.20;87.40;;;;;;5085774;27;87396;-44
2021/12/19 02:58:02;;;;;;;;;;;0.20;87.30;;;;;;5085083;27;89144;-43
2021/12/19 03:00:28;;;;;;;;;;;0.20;87.50;;;;;;5085659;27;89784;-43
2021/12/19 03:02:54;;;;;;;;;;;0.20;87.40;;;;;;5085882;27;86924;-44
2021/12/19 03:05:20;;;;;;;;;;;0.20;88.00;;;;;;5086002;27;88692;-45
2021/12/19 03:07:45;;;;;;;;;;;0.20;87.50;;;;;;5085419;27;89292;-43
2021/12/19 03:18:08;;;;;;;;;;;0.20;87.50;;;;;;5086114;27;86746;-44
2021/12/19 03:20:35;;;;;;;;;;;0.20;87.40;;;;;;5085275;27;89494;-44
2021/12/19 03:23:01;;;;;;;;;;;0.20;87.40;;;;;;5084623;27;88078;-43
2021/12/19 03:25:27;;;;;;;;;;;0.10;87.50;;;;;;5085684;27;88338;-45
2021/12/19 03:27:53;;;;;;;;;;;0.20;87.50;;;;;;5085271;27;89548;-43
2021/12/19 03:30:19;;;;;;;;;;;0.10;87.40;;;;;;5085607;27;87216;-44
2021/12/19 03:32:45;;;;;;;;;;;0.10;87.50;;;;;;5085447;27;87654;-44
2021/12/19 03:35:11;;;;;;;;;;;0.10;87.40;;;;;;5085088;27;89352;-43
2021/12/19 03:37:36;;;;;;;;;;;0.10;87.40;;;;;;5088188;27;87144;-45
2021/12/19 03:40:10;;;;;;;;;;;0.10;87.40;;;;;;5085579;27;88502;-44
2021/12/19 03:42:38;;;;;;;;;;;0.10;87.40;;;;;;5085626;27;86931;-44
2021/12/19 03:45:05;;;;;;;;;;;0.10;87.40;;;;;;5085232;27;88971;-44
2021/12/19 03:47:31;;;;;;;;;;;0.10;87.50;;;;;;5084130;27;90186;-44
2021/12/19 03:49:56;;;;;;;;;;;0.10;87.40;;;;;;5085108;27;87194;-44
2021/12/19 03:52:22;;;;;;;;;;;0.10;87.50;;;;;;5085033;27;88991;-46
2021/12/19 03:54:47;;;;;;;;;;;0.10;87.40;;;;;;5084612;27;89798;-42
2021/12/19 03:57:13;;;;;;;;;;;0.10;87.40;;;;;;5084735;27;87091;-44
2021/12/19 03:59:40;;;;;;;;;;;0.10;87.40;;;;;;5087077;27;89119;-43
2021/12/19 04:02:06;;;;;;;;;;;0.10;87.40;;;;;;5084823;27;87880;-43
2021/12/19 04:04:36;;;;;;;;;;;0.10;87.40;;;;;;5085427;27;88825;-43
2021/12/19 04:07:01;;;;;;;;;;;0.10;87.40;;;;;;5084590;27;89308;-46
2021/12/19 04:09:27;;;;;;;;;;;0.10;87.40;;;;;;5084989;27;87259;-44
2021/12/19 04:11:55;;;;;;;;;;;0.10;87.40;;;;;;5084129;27;89051;-45
2021/12/19 04:14:21;;;;;;;;;;;0.10;87.30;;;;;;5084544;27;89560;-44
2021/12/19 04:16:46;;;;;;;;;;;0.10;87.30;;;;;;5084776;27;86896;-45
2021/12/19 04:19:12;;;;;;;;;;;0.10;87.40;;;;;;5087355;27;88731;-44
2021/12/19 04:21:37;;;;;;;;;;;0.10;87.50;;;;;;5084759;27;87097;-44
2021/12/19 04:24:03;;;;;;;;;;;0.10;87.50;;;;;;5084359;27;88990;-42
2021/12/19 04:26:29;;;;;;;;;;;0.10;87.60;;;;;;5084329;27;90153;-44
2021/12/19 04:28:54;;;;;;;;;;;0.10;87.40;;;;;;5084917;27;86524;-43
2021/12/19 04:31:20;;;;;;;;;;;0.10;87.50;;;;;;5084600;27;87689;-45
2021/12/19 04:33:46;;;;;;;;;;;0.00;87.50;;;;;;5084210;27;89550;-43
2021/12/19 04:36:17;;;;;;;;;;;0.00;88.10;;;;;;5083484;27;88112;-43
2021/12/19 04:41:49;;;;;;;;;;;0.00;87.50;;;;;;5087211;27;88034;-43
2021/12/19 04:57:38;;;;;;;;;;;0.00;87.50;;;;;;5084270;27;86926;-43
2021/12/19 05:00:15;;;;;;;;;;;0.00;87.40;;;;;;5083967;27;89257;-44
2021/12/19 05:02:59;;;;;;;;;;;0.00;87.60;;;;;;5064901;27;91389;-45
2021/12/19 05:16:21;;;;;;;;;;;0.00;87.50;;;;;;5081537;27;87236;-45
2021/12/19 05:18:48;;;;;;;;;;;0.00;87.60;;;;;;5083940;27;87128;-44
2021/12/19 05:21:21;;;;;;;;;;;-0.10;87.60;;;;;;5084224;27;89008;-44
2021/12/19 05:26:15;;;;;;;;;;;0.00;87.60;;;;;;5083829;27;87098;-42
2021/12/19 05:28:40;;;;;;;;;;;0.00;87.60;;;;;;5085682;27;88621;-44
2021/12/19 05:31:06;;;;;;;;;;;0.00;87.50;;;;;;5083870;27;87205;-44
2021/12/19 05:33:32;;;;;;;;;;;-0.10;87.60;;;;;;5083669;27;88600;-42
2021/12/19 05:46:41;;;;;;;;;;;-0.10;87.60;;;;;;5086919;27;86223;-44
2021/12/19 05:49:07;;;;;;;;;;;-0.10;87.70;;;;;;5086879;27;87685;-43
2021/12/19 05:51:34;;;;;;;;;;;-0.10;87.70;;;;;;5089799;27;89477;-44
2021/12/19 05:54:00;;;;;;;;;;;-0.10;87.70;;;;;;5086471;27;88691;-43
2021/12/19 05:56:25;;;;;;;;;;;-0.10;87.60;;;;;;5086830;27;89276;-42
2021/12/19 05:58:51;;;;;;;;;;;-0.10;87.70;;;;;;5086731;27;87130;-44
2021/12/19 06:01:17;;;;;;;;;;;-0.10;87.70;;;;;;5087165;27;88857;-44
2021/12/19 06:03:42;;;;;;;;;;;-0.10;87.70;;;;;;5086481;27;89954;-45
2021/12/19 06:06:08;;;;;;;;;;;-0.10;87.80;;;;;;5086846;27;86818;-45
2021/12/19 06:08:33;;;;;;;;;;;-0.10;87.60;;;;;;5086844;27;89141;-42
2021/12/19 06:10:59;;;;;;;;;;;-0.10;87.70;;;;;;5087208;27;87847;-44
2021/12/19 06:13:24;;;;;;;;;;;-0.10;87.70;;;;;;5089780;27;87131;-44
2021/12/19 06:15:53;;;;;;;;;;;-0.10;87.70;;;;;;5086292;27;90021;-45
2021/12/19 06:18:19;;;;;;;;;;;-0.10;87.80;;;;;;5085936;27;88070;-45
2021/12/19 06:20:44;;;;;;;;;;;-0.10;87.80;;;;;;5086492;27;90034;-43
2021/12/19 06:23:10;;;;;;;;;;;-0.10;87.70;;;;;;5086215;27;89604;-43
2021/12/19 06:25:36;;;;;;;;;;;-0.10;87.90;;;;;;5086632;27;87152;-42
2021/12/19 06:28:02;;;;;;;;;;;-0.10;87.80;;;;;;5086447;27;89301;-42
2021/12/19 06:30:28;;;;;;;;;;;-0.10;88.30;;;;;;5086110;27;89890;-42
2021/12/19 06:32:54;;;;;;;;;;;-0.10;87.80;;;;;;5089427;27;87090;-43
2021/12/19 06:35:21;;;;;;;;;;;-0.10;87.80;;;;;;5086269;27;88741;-43
2021/12/19 06:37:48;;;;;;;;;;;-0.10;87.70;;;;;;5086354;27;87089;-43
2021/12/19 06:40:15;;;;;;;;;;;-0.20;87.70;;;;;;5086283;27;89175;-45
2021/12/19 06:42:40;;;;;;;;;;;-0.10;87.70;;;;;;5085388;27;90515;-45
2021/12/19 06:45:06;;;;;;;;;;;-0.10;87.60;;;;;;5086162;27;87023;-44
2021/12/19 06:47:32;;;;;;;;;;;-0.10;87.60;;;;;;5085882;27;89154;-44
2021/12/19 06:49:57;;;;;;;;;;;-0.10;87.60;;;;;;5085573;27;89397;-44
2021/12/19 06:52:23;;;;;;;;;;;-0.10;87.60;;;;;;5086054;27;87126;-44
2021/12/19 06:54:49;;;;;;;;;;;-0.10;87.60;;;;;;5088792;27;88498;-44
2021/12/19 06:57:14;;;;;;;;;;;-0.10;87.60;;;;;;5086179;27;87154;-43
2021/12/19 06:59:40;;;;;;;;;;;-0.10;87.50;;;;;;5086164;27;88862;-44
2021/12/19 07:02:05;;;;;;;;;;;-0.10;87.70;;;;;;5085486;27;89688;-42
2021/12/19 07:04:31;;;;;;;;;;;-0.20;87.60;;;;;;5085687;27;87041;-43
2021/12/19 07:06:56;;;;;;;;;;;-0.20;87.70;;;;;;5085384;27;88831;-42
2021/12/19 07:09:22;;;;;;;;;;;-0.20;87.60;;;;;;5085598;27;88850;-45
2021/12/19 07:11:47;;;;;;;;;;;-0.10;87.80;;;;;;5085997;27;87159;-44
2021/12/19 07:14:13;;;;;;;;;;;-0.20;87.70;;;;;;5085686;27;88272;-42
2021/12/19 07:16:39;;;;;;;;;;;-0.20;87.60;;;;;;5088328;27;88735;-44
2021/12/19 07:19:04;;;;;;;;;;;-0.20;87.70;;;;;;5085395;27;88714;-43
2021/12/19 07:21:30;;;;;;;;;;;-0.20;87.80;;;;;;5085172;27;89255;-44
2021/12/19 07:23:56;;;;;;;;;;;-0.20;87.80;;;;;;5086284;27;86276;-43
2021/12/19 07:26:22;;;;;;;;;;;-0.20;88.00;;;;;;5085616;27;87583;-42
2021/12/19 07:28:49;;;;;;;;;;;-0.20;87.70;;;;;;5085180;27;88498;-43
2021/12/19 07:31:15;;;;;;;;;;;-0.20;87.70;;;;;;5084731;27;88069;-43
2021/12/19 07:33:43;;;;;;;;;;;-0.20;87.70;;;;;;5085195;27;89469;-44
2021/12/19 07:36:09;;;;;;;;;;;-0.20;87.80;;;;;;5085339;27;88378;-44
2021/12/19 07:38:41;;;;;;;;;;;-0.20;88.00;;;;;;5088238;27;87146;-44
2021/12/19 07:41:06;;;;;;;;;;;-0.20;87.90;;;;;;5085197;27;89503;-43
2021/12/19 07:43:32;;;;;;;;;;;-0.20;88.00;;;;;;5085344;27;87013;-46
2021/12/19 07:45:57;;;;;;;;;;;-0.20;88.00;;;;;;5066972;27;90503;-44
2021/12/19 07:48:23;;;;;;;;;;;-0.30;88.00;;;;;;5066891;27;90515;-43
2021/12/19 07:50:49;;;;;;;;;;;-0.20;88.10;;;;;;5085532;27;87104;-42
2021/12/19 07:53:14;;;;;;;;;;;-0.30;88.00;;;;;;5085149;27;88383;-43
2021/12/19 07:55:40;;;;;;;;;;;-0.20;88.00;;;;;;5083984;27;90187;-43
2021/12/19 07:58:06;;;;;;;;;;;-0.30;88.00;;;;;;5083826;27;87133;-43
2021/12/19 08:00:31;;;;;;;;;;;-0.20;87.90;;;;;;5087740;27;89071;-43
2021/12/19 08:02:57;;;;;;;;;;;-0.20;87.90;;;;;;5084903;27;87172;-44
2021/12/19 08:05:22;;;;;;;;;;;-0.30;87.90;;;;;;5084835;27;88782;-42
2021/12/19 08:07:54;;;;;;;;;;;-0.20;87.90;;;;;;5084528;27;89386;-42
2021/12/19 08:12:46;;;;;;;;;;;-0.20;87.80;;;;;;5085717;27;86615;-45
2021/12/19 08:15:11;;;;;;;;;;;-0.20;87.90;;;;;;5084363;27;89708;-44
2021/12/19 08:17:37;;;;;;;;;;;-0.20;88.00;;;;;;5084839;27;87084;-44
2021/12/19 08:20:05;;;;;;;;;;;-0.20;87.90;;;;;;5083969;27;89553;-44
2021/12/19 08:22:32;;;;;;;;;;;-0.20;87.90;;;;;;5087379;27;89533;-42
2021/12/19 08:24:57;;;;;;;;;;;-0.20;87.80;;;;;;5084758;27;88868;-42
2021/12/19 08:27:25;;;;;;;;;;;-0.20;87.80;;;;;;5084119;27;89487;-42
2021/12/19 08:29:53;;;;;;;;;;;-0.20;88.00;;;;;;5084651;27;87313;-44
2021/12/19 08:32:19;;;;;;;;;;;-0.30;88.00;;;;;;5084249;27;88784;-45
2021/12/19 08:34:45;;;;;;;;;;;-0.20;88.30;;;;;;5084205;27;89594;-44
2021/12/19 08:37:10;;;;;;;;;;;-0.20;88.00;;;;;;5084987;27;86404;-45
2021/12/19 08:39:38;;;;;;;;;;;-0.20;88.10;;;;;;5084607;27;87356;-43
2021/12/19 08:42:06;;;;;;;;;;;-0.20;88.00;;;;;;5086833;27;89577;-43
2021/12/19 08:44:32;;;;;;;;;;;-0.30;88.00;;;;;;5083763;27;88657;-43
2021/12/19 08:46:58;;;;;;;;;;;-0.30;88.00;;;;;;5083838;27;89374;-44
2021/12/19 08:49:23;;;;;;;;;;;-0.20;88.10;;;;;;5084165;27;87154;-43
2021/12/19 08:51:49;;;;;;;;;;;-0.30;88.00;;;;;;5084418;27;88942;-45
2021/12/19 08:54:14;;;;;;;;;;;-0.30;88.10;;;;;;5084190;27;89454;-44
2021/12/19 08:56:40;;;;;;;;;;;-0.30;88.00;;;;;;5084251;27;87170;-42
2021/12/19 08:59:06;;;;;;;;;;;-0.20;88.00;;;;;;5083642;27;89080;-43
2021/12/19 09:01:32;;;;;;;;;;;-0.20;88.00;;;;;;5084218;27;88615;-45
2021/12/19 09:03:58;;;;;;;;;;;-0.20;88.30;;;;;;5086850;27;87102;-45
2021/12/19 09:06:23;;;;;;;;;;;-0.30;88.00;;;;;;5083780;27;89326;-45
2021/12/19 09:08:49;;;;;;;;;;;-0.30;88.10;;;;;;5083198;27;88081;-45
2021/12/19 09:11:15;;;;;;;;;;;-0.30;88.00;;;;;;5085895;27;89793;-45
2021/12/19 09:13:40;;;;;;;;;;;-0.30;88.00;;;;;;5087253;27;89475;-44
2021/12/19 09:16:06;;;;;;;;;;;-0.30;88.00;;;;;;5087569;27;87122;-43
2021/12/19 09:18:31;;;;;;;;;;;-0.20;88.10;;;;;;5087469;27;89072;-44
2021/12/19 09:20:57;;;;;;;;;;;-0.30;88.00;;;;;;5087258;27;89396;-45
2021/12/19 09:23:23;;;;;;;;;;;-0.30;88.10;;;;;;5087748;27;87150;-44
2021/12/19 09:25:49;;;;;;;;;;;-0.20;88.00;;;;;;5090786;27;89090;-44
2021/12/19 09:28:15;;;;;;;;;;;-0.20;88.00;;;;;;5087524;27;87113;-43
2021/12/19 09:30:41;;;;;;;;;;;-0.30;88.00;;;;;;5087405;27;89071;-43
2021/12/19 09:33:06;;;;;;;;;;;-0.30;88.00;;;;;;5086537;27;89567;-44
2021/12/19 09:35:34;;;;;;;;;;;-0.20;88.00;;;;;;5087234;27;87108;-45
2021/12/19 09:38:00;;;;;;;;;;;-0.20;88.00;;;;;;5087393;27;89364;-44
2021/12/19 09:40:33;;;;;;;;;;;-0.30;88.00;;;;;;5086973;27;89287;-44
2021/12/19 09:43:01;;;;;;;;;;;-0.30;88.00;;;;;;5087384;27;86891;-43
2021/12/19 09:45:27;;;;;;;;;;;-0.30;88.00;;;;;;5087163;27;88915;-44
2021/12/19 09:47:53;;;;;;;;;;;-0.30;88.00;;;;;;5089658;27;89995;-43
2021/12/19 09:50:19;;;;;;;;;;;-0.30;88.00;;;;;;5087651;27;89037;-43
2021/12/19 09:52:49;;;;;;;;;;;-0.30;88.00;;;;;;5086969;27;88556;-43
2021/12/19 09:55:19;;;;;;;;;;;-0.20;88.10;;;;;;5087187;27;87123;-43
2021/12/19 09:57:45;;;;;;;;;;;-0.20;88.10;;;;;;5086665;27;87829;-43
2021/12/19 10:00:11;;;;;;;;;;;-0.30;88.70;;;;;;5086358;27;88994;-43
2021/12/19 10:02:37;;;;;;;;;;;-0.30;88.20;;;;;;5086876;27;87149;-46
2021/12/19 10:05:20;;;;;;;;;;;-0.20;88.00;;;;;;5086833;27;89359;-43
2021/12/19 10:07:53;;;;;;;;;;;-0.20;88.00;;;;;;5086561;27;88336;-44
2021/12/19 10:10:27;;;;;;;;;;;-0.20;88.00;;;;;;5089772;27;86818;-45
2021/12/19 10:12:57;;;;;;;;;;;-0.20;88.00;;;;;;5086453;27;90051;-44
2021/12/19 10:15:28;;;;;;;;;;;-0.20;88.00;;;;;;5087325;27;86294;-44
2021/12/19 10:18:01;;;;;;;;;;;-0.20;88.00;;;;;;5086633;27;88110;-43
2021/12/19 10:20:38;;;;;;;;;;;-0.20;88.00;;;;;;5086393;27;87974;-46
2021/12/19 10:23:23;;;;;;;;;;;-0.20;88.00;;;;;;5085488;27;88083;-44
2021/12/19 10:25:56;;;;;;;;;;;-0.20;88.00;;;;;;5086777;27;89642;-45
2021/12/19 10:28:22;;;;;;;;;;;-0.20;87.80;;;;;;5086326;27;89621;-44
2021/12/19 10:30:48;;;;;;;;;;;-0.10;87.60;;;;;;5086837;27;87139;-45
2021/12/19 10:33:14;;;;;;;;;;;0.00;87.50;;;;;;5089103;27;88771;-44
2021/12/19 10:35:42;;;;;;;;;;;0.00;87.50;;;;;;5086448;27;87101;-43
2021/12/19 10:38:22;;;;;;;;;;;0.00;87.60;;;;;;5086315;27;89281;-45
2021/12/19 10:40:53;;;;;;;;;;;0.00;86.90;;;;;;5086680;27;88378;-43
2021/12/19 10:43:19;;;;;;;;;;;0.00;87.50;;;;;;5086250;27;86872;-43
2021/12/19 10:45:51;;;;;;;;;;;0.00;87.20;;;;;;5086313;27;89257;-44
2021/12/19 10:48:28;;;;;;;;;;;0.00;87.10;;;;;;5084929;27;90331;-44
2021/12/19 10:51:02;;;;;;;;;;;0.00;87.40;;;;;;5086077;27;87193;-44
2021/12/19 10:53:29;;;;;;;;;;;0.00;87.50;;;;;;5088881;27;86900;-43
2021/12/19 10:55:55;;;;;;;;;;;0.10;88.00;;;;;;5086124;27;87191;-45
2021/12/19 10:58:27;;;;;;;;;;;0.00;87.00;;;;;;5085488;27;88366;-44
2021/12/19 11:00:56;;;;;;;;;;;0.10;86.90;;;;;;5085306;27;89437;-44
2021/12/19 11:03:35;;;;;;;;;;;0.10;87.10;;;;;;5086327;27;87342;-43
2021/12/19 11:06:01;;;;;;;;;;;0.20;87.00;;;;;;5086512;27;88766;-44
2021/12/19 11:08:31;;;;;;;;;;;0.10;86.90;;;;;;5085568;27;89678;-43
2021/12/19 11:10:57;;;;;;;;;;;0.10;86.90;;;;;;5085903;27;87184;-43
2021/12/19 11:13:22;;;;;;;;;;;0.20;87.00;;;;;;5084968;27;88880;-45
2021/12/19 11:15:49;;;;;;;;;;;0.10;86.70;;;;;;5088469;27;89689;-43
2021/12/19 11:18:15;;;;;;;;;;;0.10;87.10;;;;;;5085659;27;87887;-44
2021/12/19 11:20:40;;;;;;;;;;;0.10;87.00;;;;;;5085379;27;89380;-45
2021/12/19 11:23:06;;;;;;;;;;;0.00;87.10;;;;;;5085581;27;87294;-45
2021/12/19 11:25:32;;;;;;;;;;;0.10;87.40;;;;;;5085538;27;89525;-43
2021/12/19 11:27:58;;;;;;;;;;;0.10;87.20;;;;;;5084823;27;88840;-44
2021/12/19 11:30:25;;;;;;;;;;;0.10;86.90;;;;;;5085877;27;86360;-43
2021/12/19 11:33:05;;;;;;;;;;;0.10;87.40;;;;;;5084583;27;88059;-44
2021/12/19 11:35:33;;;;;;;;;;;0.10;87.00;;;;;;5085043;27;89863;-43
2021/12/19 11:38:00;;;;;;;;;;;0.10;87.00;;;;;;5087864;27;88087;-45
2021/12/19 11:40:30;;;;;;;;;;;0.10;87.40;;;;;;5084875;27;89588;-45
2021/12/19 11:43:00;;;;;;;;;;;0.00;87.20;;;;;;5085543;27;86895;-44
2021/12/19 11:45:42;;;;;;;;;;;0.00;88.00;;;;;;5085290;27;88664;-44
2021/12/19 11:48:15;;;;;;;;;;;0.00;87.70;;;;;;5084950;27;89319;-43
2021/12/19 11:50:48;;;;;;;;;;;0.00;88.60;;;;;;5066964;27;86810;-45
2021/12/19 11:53:14;;;;;;;;;;;-0.10;87.50;;;;;;5085427;27;88713;-45
2021/12/19 11:56:04;;;;;;;;;;;-0.10;87.80;;;;;;5085301;27;88840;-43
2021/12/19 11:58:31;;;;;;;;;;;-0.10;87.80;;;;;;5084260;27;87149;-45
2021/12/19 12:01:01;;;;;;;;;;;0.00;87.60;;;;;;5087485;27;89332;-43
2021/12/19 12:03:26;;;;;;;;;;;0.00;87.80;;;;;;5084393;27;88103;-46
2021/12/19 12:05:53;;;;;;;;;;;-0.10;87.70;;;;;;5084933;27;89713;-44
2021/12/19 12:08:20;;;;;;;;;;;-0.10;87.90;;;;;;5084418;27;89436;-45
2021/12/19 12:10:53;;;;;;;;;;;-0.10;88.00;;;;;;5085009;27;87013;-43
2021/12/19 12:13:21;;;;;;;;;;;-0.10;87.80;;;;;;5066668;27;90529;-45
2021/12/19 12:15:50;;;;;;;;;;;-0.10;88.00;;;;;;5084654;27;89433;-44
2021/12/19 12:18:29;;;;;;;;;;;-0.10;87.80;;;;;;5084597;27;87022;-43
2021/12/19 12:20:54;;;;;;;;;;;-0.10;88.00;;;;;;5085377;27;88698;-44
2021/12/19 12:23:25;;;;;;;;;;;-0.10;88.00;;;;;;5087201;27;88766;-45
2021/12/19 12:25:50;;;;;;;;;;;-0.10;87.90;;;;;;5084751;27;88793;-45
2021/12/19 12:28:17;;;;;;;;;;;-0.10;88.00;;;;;;5083475;27;90899;-45
2021/12/19 12:30:47;;;;;;;;;;;-0.10;88.20;;;;;;5084201;27;87104;-43
2021/12/19 12:33:14;;;;;;;;;;;-0.10;88.10;;;;;;5084562;27;88738;-45
2021/12/19 12:35:41;;;;;;;;;;;-0.10;88.10;;;;;;5084225;27;89379;-43
2021/12/19 12:38:07;;;;;;;;;;;-0.10;88.00;;;;;;5084372;27;87120;-44
2021/12/19 12:40:46;;;;;;;;;;;-0.10;88.10;;;;;;5084563;27;88707;-44
2021/12/19 12:43:19;;;;;;;;;;;-0.10;88.70;;;;;;5083760;27;89535;-44
2021/12/19 12:45:47;;;;;;;;;;;-0.10;88.20;;;;;;5087912;27;86256;-43
2021/12/19 12:48:24;;;;;;;;;;;-0.10;88.00;;;;;;5083949;27;89422;-46
2021/12/19 12:50:50;;;;;;;;;;;-0.10;88.00;;;;;;5084433;27;86936;-45
2021/12/19 12:53:26;;;;;;;;;;;-0.10;87.90;;;;;;5083618;27;88848;-45
2021/12/19 12:56:22;;;;;;;;;;;-0.10;88.00;;;;;;5083809;27;89080;-44
2021/12/19 12:58:52;;;;;;;;;;;-0.10;88.00;;;;;;5062019;27;88835;-45
2021/12/19 13:01:25;;;;;;;;;;;-0.10;88.00;;;;;;5084100;27;89113;-45
2021/12/19 13:04:07;;;;;;;;;;;0.00;88.30;;;;;;5083886;27;89510;-45
2021/12/19 13:06:48;;;;;;;;;;;0.00;88.10;;;;;;5087044;27;87083;-45
2021/12/19 13:09:26;;;;;;;;;;;-0.10;88.10;;;;;;5083576;27;89338;-45
2021/12/19 13:11:56;;;;;;;;;;;-0.10;88.10;;;;;;5084443;27;86387;-45
2021/12/19 13:14:23;;;;;;;;;;;-0.10;88.20;;;;;;5084195;27;88391;-43
2021/12/19 13:17:09;;;;;;;;;;;-0.10;88.10;;;;;;5083432;27;89249;-44
2021/12/19 13:19:43;;;;;;;;;;;-0.10;88.10;;;;;;5082606;27;88161;-45
2021/12/19 13:22:13;;;;;;;;;;;-0.10;88.20;;;;;;5083849;27;89736;-45
2021/12/19 13:24:39;;;;;;;;;;;-0.10;88.30;;;;;;5083467;27;89157;-43
2021/12/19 13:27:05;;;;;;;;;;;-0.10;88.10;;;;;;5084054;27;87177;-43
2021/12/19 13:29:31;;;;;;;;;;;0.00;88.10;;;;;;5086624;27;88710;-44
2021/12/19 13:32:15;;;;;;;;;;;-0.10;88.00;;;;;;5083742;27;87187;-45
2021/12/19 13:34:40;;;;;;;;;;;-0.10;88.10;;;;;;5083765;27;88797;-44
2021/12/19 13:37:06;;;;;;;;;;;0.00;88.40;;;;;;5083909;27;88706;-46
2021/12/19 13:39:32;;;;;;;;;;;0.00;88.10;;;;;;5083600;27;87137;-44
2021/12/19 13:42:10;;;;;;;;;;;-0.10;88.30;;;;;;5083652;27;89109;-44
2021/12/19 13:44:36;;;;;;;;;;;0.00;88.40;;;;;;5082619;27;91099;-45
2021/12/19 13:47:12;;;;;;;;;;;-0.10;88.40;;;;;;5083575;27;86956;-45
2021/12/19 13:49:38;;;;;;;;;;;0.00;88.20;;;;;;5083342;27;88686;-45
2021/12/19 13:52:05;;;;;;;;;;;0.00;88.00;;;;;;5086033;27;89652;-45
2021/12/19 13:54:31;;;;;;;;;;;0.00;88.20;;;;;;5083472;27;88630;-44
2021/12/19 13:56:57;;;;;;;;;;;-0.10;88.10;;;;;;5084623;27;89344;-45
2021/12/19 13:59:24;;;;;;;;;;;0.00;88.30;;;;;;5086481;27;87147;-44
2021/12/19 14:01:50;;;;;;;;;;;0.00;88.30;;;;;;5087629;27;88276;-44
2021/12/19 14:04:21;;;;;;;;;;;0.00;88.10;;;;;;5086630;27;89721;-45
2021/12/19 14:06:49;;;;;;;;;;;0.00;88.10;;;;;;5086805;27;87067;-44
2021/12/19 14:09:17;;;;;;;;;;;0.00;88.10;;;;;;5086103;27;88801;-45
2021/12/19 14:11:46;;;;;;;;;;;0.00;88.20;;;;;;5086590;27;89664;-44
2021/12/19 14:14:30;;;;;;;;;;;0.00;88.10;;;;;;5089571;27;87115;-43
2021/12/19 14:17:15;;;;;;;;;;;0.00;88.10;;;;;;5086615;27;89882;-44
2021/12/19 14:20:07;;;;;;;;;;;0.00;88.40;;;;;;5086082;27;87119;-45
2021/12/19 14:22:32;;;;;;;;;;;0.00;88.10;;;;;;5081398;27;88222;-44
2021/12/19 14:24:59;;;;;;;;;;;0.00;88.10;;;;;;5086121;27;90161;-45
2021/12/19 14:27:28;;;;;;;;;;;0.00;88.10;;;;;;5087115;27;86378;-49
2021/12/19 14:29:54;;;;;;;;;;;0.00;88.00;;;;;;5086371;27;87296;-43
2021/12/19 14:32:33;;;;;;;;;;;0.00;88.10;;;;;;5086229;27;88971;-45
2021/12/19 14:35:16;;;;;;;;;;;0.10;88.30;;;;;;5085873;27;88069;-44
2021/12/19 14:37:46;;;;;;;;;;;0.00;88.00;;;;;;5089247;27;90144;-43
2021/12/19 14:40:12;;;;;;;;;;;0.00;88.00;;;;;;5086313;27;87176;-45
2021/12/19 14:42:42;;;;;;;;;;;0.00;88.10;;;;;;5086275;27;88778;-44
2021/12/19 14:45:17;;;;;;;;;;;0.00;88.10;;;;;;5085888;27;89835;-44
2021/12/19 14:47:44;;;;;;;;;;;0.00;88.10;;;;;;5086435;27;86985;-43
2021/12/19 14:50:11;;;;;;;;;;;0.00;88.30;;;;;;5086140;27;88877;-44
2021/12/19 14:52:36;;;;;;;;;;;0.00;88.20;;;;;;5086275;27;88523;-46
2021/12/19 14:55:11;;;;;;;;;;;0.00;88.20;;;;;;5085869;27;86988;-45
2021/12/19 14:57:37;;;;;;;;;;;0.00;88.10;;;;;;5088873;27;88152;-46
2021/12/19 15:00:05;;;;;;;;;;;0.00;88.10;;;;;;5066645;27;88188;-45
2021/12/19 15:02:30;;;;;;;;;;;0.00;88.30;;;;;;5085983;27;89900;-43
2021/12/19 15:04:56;;;;;;;;;;;0.00;88.30;;;;;;5085610;27;90110;-47
2021/12/19 15:07:25;;;;;;;;;;;0.00;88.20;;;;;;5085724;27;86876;-43
2021/12/19 15:09:50;;;;;;;;;;;0.00;88.20;;;;;;5085691;27;88789;-45
2021/12/19 15:12:16;;;;;;;;;;;0.00;88.30;;;;;;5085460;27;89731;-45
2021/12/19 15:14:42;;;;;;;;;;;0.10;88.30;;;;;;5085763;27;87147;-45
2021/12/19 15:17:07;;;;;;;;;;;0.00;88.10;;;;;;5086263;27;89337;-43
2021/12/19 15:19:33;;;;;;;;;;;0.00;88.10;;;;;;5088281;27;89196;-45
2021/12/19 15:21:59;;;;;;;;;;;0.00;88.20;;;;;;5085637;27;89106;-43
2021/12/19 15:24:24;;;;;;;;;;;0.00;88.20;;;;;;5084559;27;90475;-45
2021/12/19 15:26:50;;;;;;;;;;;0.10;88.50;;;;;;5085588;27;87228;-44
2021/12/19 15:29:15;;;;;;;;;;;0.10;88.10;;;;;;5085579;27;89176;-43
2021/12/19 15:31:41;;;;;;;;;;;0.00;88.10;;;;;;5085163;27;89569;-44
2021/12/19 15:34:07;;;;;;;;;;;0.00;88.50;;;;;;5085402;27;86888;-45